Terminal Aerodrome Forecast
Issued by NWS Bismarck, ND

Home | Current Version | Previous Version | Text Only | Print | Product List | Glossary Off
Versions: 1 2 3 4 5 6 7 8 9 10 11 12 13 14 15 16 17 18 19 20 21 22 23 24 25 26

000
FTUS43 KBIS 221730
TAFISN
TAF
KISN 221730Z 2218/2318 09016G24KT P6SM VCSH OVC080
      TEMPO 2218/2220 -SHRA OVC080
     FM222000 09016G24KT P6SM VCSH OVC070
     FM231200 09014G21KT P6SM -SHRA OVC015
     FM231700 10012G19KT 6SM -SHRA OVC008=

USA.gov is the U.S. government's official web portal to all federal, state and local government web resources and services.